createdAt,value
2019-04-26T00:01:22.027Z,5.17
2019-04-26T00:03:54.328Z,4.30
2019-04-26T00:06:24.073Z,4.70
2019-04-26T00:08:59.768Z,4.73
2019-04-26T00:11:43.560Z,5.30
2019-04-26T00:14:47.458Z,5.73
2019-04-26T00:17:22.393Z,3.80
2019-04-26T00:19:52.455Z,5.93
2019-04-26T00:22:22.267Z,4.20
2019-04-26T00:24:51.746Z,5.93
2019-04-26T00:27:24.677Z,4.67
2019-04-26T00:29:54.208Z,5.83
2019-04-26T00:32:23.737Z,6.87
2019-04-26T00:34:53.152Z,5.30
2019-04-26T00:37:22.699Z,5.90
2019-04-26T00:39:52.148Z,5.77
2019-04-26T00:42:22.696Z,6.10
2019-04-26T00:44:52.298Z,5.90
2019-04-26T00:47:27.081Z,5.97
2019-04-26T00:49:57.793Z,6.53
2019-04-26T00:52:28.078Z,7.03
2019-04-26T00:55:01.021Z,6.00
2019-04-26T00:57:31.829Z,6.67
2019-04-26T01:00:02.303Z,5.90
2019-04-26T01:02:40.118Z,6.63
2019-04-26T01:05:09.644Z,5.50
2019-04-26T01:07:39.785Z,5.93
2019-04-26T01:10:09.219Z,5.93
2019-04-26T01:12:38.641Z,6.33
2019-04-26T01:15:08.589Z,7.20
2019-04-26T01:17:38.058Z,5.97
2019-04-26T01:20:08.132Z,5.27
2019-04-26T01:22:41.527Z,7.20
2019-04-26T01:25:32.963Z,6.17
2019-04-26T01:28:03.307Z,6.60
2019-04-26T01:30:34.146Z,7.10
2019-04-26T01:33:04.231Z,7.97
2019-04-26T01:35:33.845Z,8.80
2019-04-26T01:38:05.196Z,11.47
2019-04-26T01:40:36.246Z,8.80
2019-04-26T01:43:16.152Z,10.90
2019-04-26T01:45:57.882Z,9.60
2019-04-26T01:48:48.513Z,8.93
2019-04-26T01:51:24.880Z,9.50
2019-04-26T01:53:54.379Z,10.33
2019-04-26T01:56:27.765Z,10.80
2019-04-26T01:58:57.101Z,10.20
2019-04-26T02:01:49.259Z,9.90
2019-04-26T02:04:18.933Z,10.03
2019-04-26T02:06:48.390Z,10.97
2019-04-26T02:09:17.745Z,13.60
2019-04-26T02:11:47.265Z,10.13
2019-04-26T02:14:16.876Z,11.00
2019-04-26T02:16:46.369Z,11.47
2019-04-26T02:19:15.863Z,11.03
2019-04-26T02:21:52.821Z,11.90
2019-04-26T02:24:30.091Z,12.13
2019-04-26T02:27:01.790Z,11.67
2019-04-26T02:29:31.309Z,11.37
2019-04-26T02:32:03.768Z,12.20
2019-04-26T02:34:36.006Z,13.70
2019-04-26T02:37:08.338Z,15.27
2019-04-26T02:39:40.355Z,13.53
2019-04-26T02:42:39.543Z,14.70
2019-04-26T02:45:33.791Z,14.90
2019-04-26T02:48:30.432Z,15.07
2019-04-26T02:51:04.032Z,15.03
2019-04-26T02:54:02.891Z,17.27
2019-04-26T02:56:38.241Z,16.70
2019-04-26T02:59:40.421Z,17.63
2019-04-26T03:02:22.022Z,19.10
2019-04-26T03:04:57.688Z,17.13
2019-04-26T03:08:00.639Z,17.17
2019-04-26T03:10:57.585Z,19.97
2019-04-26T03:13:43.745Z,19.00
2019-04-26T03:16:35.170Z,16.47
2019-04-26T03:19:27.483Z,18.60
2019-04-26T03:22:06.964Z,18.43
2019-04-26T03:24:44.154Z,18.70
2019-04-26T03:27:51.969Z,20.03
2019-04-26T03:30:42.268Z,21.30
2019-04-26T03:33:53.174Z,16.80
2019-04-26T03:36:54.162Z,17.70
2019-04-26T03:39:46.466Z,18.60
2019-04-26T03:42:36.463Z,17.47
2019-04-26T03:45:27.108Z,17.97
2019-04-26T03:48:10.500Z,18.10
2019-04-26T03:50:47.674Z,17.67
2019-04-26T03:53:43.882Z,18.40
2019-04-26T03:57:13.760Z,18.93
2019-04-26T04:00:22.025Z,17.10
2019-04-26T04:03:26.633Z,15.70
2019-04-26T04:05:56.966Z,18.73
2019-04-26T04:08:33.532Z,18.10
2019-04-26T04:11:08.702Z,17.40
2019-04-26T04:14:07.704Z,15.50
2019-04-26T04:16:58.015Z,15.90
2019-04-26T04:20:15.002Z,15.60
2019-04-26T04:22:49.261Z,14.40
2019-04-26T04:25:25.844Z,15.67
2019-04-26T04:28:09.051Z,16.13
2019-04-26T04:30:45.942Z,16.77
2019-04-26T04:34:00.515Z,14.60
2019-04-26T04:36:41.527Z,13.77
2019-04-26T04:39:21.903Z,13.20
2019-04-26T04:42:19.753Z,13.50
2019-04-26T04:45:28.979Z,12.83
2019-04-26T04:48:29.245Z,13.10
2019-04-26T04:51:42.877Z,12.67
2019-04-26T04:54:18.134Z,13.63
2019-04-26T04:57:17.130Z,15.03
2019-04-26T05:00:24.677Z,12.70
2019-04-26T05:03:28.114Z,14.53
2019-04-26T05:06:42.830Z,12.50
2019-04-26T05:09:18.509Z,14.73
2019-04-26T05:11:55.976Z,14.53
2019-04-26T05:14:52.261Z,14.70
2019-04-26T05:17:39.525Z,13.93
2019-04-26T05:20:31.630Z,13.83
2019-04-26T05:23:47.139Z,14.30
2019-04-26T05:26:54.386Z,13.27
2019-04-26T05:29:39.767Z,14.30
2019-04-26T05:32:27.727Z,12.50
2019-04-26T05:35:07.241Z,12.90
2019-04-26T05:38:18.650Z,14.10
2019-04-26T05:41:34.033Z,12.77
2019-04-26T05:44:23.256Z,13.43
2019-04-26T05:48:05.302Z,16.03
2019-04-26T05:51:18.506Z,14.60
2019-04-26T05:54:44.261Z,14.20
2019-04-26T05:58:03.230Z,15.00
2019-04-26T06:01:07.200Z,15.90
2019-04-26T06:04:39.446Z,17.37
2019-04-26T06:07:38.899Z,14.50
2019-04-26T06:10:31.638Z,17.17
2019-04-26T06:13:36.252Z,15.80
2019-04-26T06:16:43.883Z,14.83
2019-04-26T06:19:27.360Z,14.43
2019-04-26T06:22:10.973Z,16.90
2019-04-26T06:25:10.917Z,14.90
2019-04-26T06:27:58.376Z,15.57
2019-04-26T06:30:45.546Z,14.90
2019-04-26T06:33:29.704Z,14.00
2019-04-26T06:36:01.799Z,14.13
2019-04-26T06:39:33.400Z,15.77
2019-04-26T06:42:59.199Z,15.50
2019-04-26T06:46:24.254Z,13.23
2019-04-26T06:49:42.344Z,14.37
2019-04-26T06:52:15.561Z,13.03
2019-04-26T06:54:56.269Z,15.03
2019-04-26T06:57:53.186Z,15.80
2019-04-26T07:00:27.767Z,14.13
2019-04-26T07:03:10.481Z,14.73
2019-04-26T07:05:41.705Z,13.90
2019-04-26T07:08:42.009Z,14.73
2019-04-26T07:12:05.193Z,13.30
2019-04-26T07:15:02.315Z,16.73
2019-04-26T07:18:10.775Z,14.90
2019-04-26T07:20:52.768Z,14.00
2019-04-26T07:24:13.461Z,12.97
2019-04-26T07:27:48.308Z,13.37
2019-04-26T07:30:49.910Z,13.13
2019-04-26T07:34:16.747Z,11.60
2019-04-26T07:37:22.951Z,12.33
2019-04-26T07:40:36.047Z,11.53
2019-04-26T07:43:28.248Z,11.47
2019-04-26T07:46:44.062Z,12.60
2019-04-26T07:49:56.161Z,12.07
2019-04-26T07:53:03.228Z,11.50
2019-04-26T07:56:19.325Z,13.70
2019-04-26T07:59:24.390Z,11.93
2019-04-26T08:02:33.788Z,11.10
2019-04-26T08:05:15.908Z,13.07
2019-04-26T08:07:48.881Z,14.60
2019-04-26T08:10:19.863Z,14.10
2019-04-26T08:12:56.546Z,15.23
2019-04-26T08:15:48.041Z,17.07
2019-04-26T08:18:32.797Z,17.03
2019-04-26T08:21:15.207Z,27.63
2019-04-26T08:23:56.459Z,23.83
2019-04-26T08:26:26.387Z,16.17
2019-04-26T08:29:00.571Z,16.27
2019-04-26T08:31:29.641Z,14.00
2019-04-26T08:34:03.983Z,16.30
2019-04-26T08:36:39.411Z,16.53
2019-04-26T08:39:18.211Z,15.17
2019-04-26T08:41:49.480Z,14.00
2019-04-26T08:44:35.926Z,13.43
2019-04-26T08:47:26.119Z,13.80
2019-04-26T08:50:15.220Z,13.30
2019-04-26T08:52:46.507Z,13.40
2019-04-26T08:55:17.521Z,13.93
2019-04-26T08:57:48.220Z,14.20
2019-04-26T09:00:56.764Z,13.60
2019-04-26T09:03:43.371Z,14.30
2019-04-26T09:06:20.188Z,17.50
2019-04-26T09:08:50.736Z,14.70
2019-04-26T09:11:25.801Z,12.60
2019-04-26T09:13:54.003Z,15.60
2019-04-26T09:16:23.780Z,15.20
2019-04-26T09:18:57.295Z,12.00
2019-04-26T09:21:34.520Z,13.07
2019-04-26T09:24:14.438Z,13.67
2019-04-26T09:26:57.700Z,12.57
2019-04-26T09:29:44.800Z,13.57
2019-04-26T09:32:20.506Z,12.27
2019-04-26T09:34:50.017Z,16.03
2019-04-26T09:37:19.580Z,10.57
2019-04-26T09:39:49.173Z,11.97
2019-04-26T09:42:39.425Z,12.97
2019-04-26T09:45:34.817Z,14.50
2019-04-26T09:48:08.897Z,11.57
2019-04-26T09:50:41.471Z,23.23
2019-04-26T09:53:11.023Z,11.73
2019-04-26T09:55:40.443Z,10.90
2019-04-26T09:58:09.866Z,11.37
2019-04-26T10:00:39.515Z,10.10
2019-04-26T10:03:09.568Z,12.10
2019-04-26T10:05:40.160Z,10.20
2019-04-26T10:08:13.091Z,10.50
2019-04-26T10:10:41.014Z,11.20
2019-04-26T10:13:32.974Z,12.63
2019-04-26T10:16:17.075Z,12.60
2019-04-26T10:18:50.479Z,14.87
2019-04-26T10:21:19.926Z,12.03
2019-04-26T10:23:49.573Z,14.30
2019-04-26T10:26:19.006Z,11.83
2019-04-26T10:28:50.717Z,13.80
2019-04-26T10:31:20.866Z,12.60
2019-04-26T10:33:50.491Z,8.90
2019-04-26T10:36:20.035Z,11.73
2019-04-26T10:38:49.546Z,13.00
2019-04-26T10:41:19.060Z,11.90
2019-04-26T10:43:48.602Z,11.70
2019-04-26T10:46:17.989Z,12.70
2019-04-26T10:48:49.924Z,13.03
2019-04-26T10:51:24.113Z,12.60
2019-04-26T10:54:11.760Z,11.60
2019-04-26T10:57:02.901Z,11.73
2019-04-26T10:59:53.823Z,11.00
2019-04-26T11:02:23.511Z,12.60
2019-04-26T11:04:53.314Z,11.27
2019-04-26T11:07:22.813Z,11.80
2019-04-26T11:09:52.346Z,11.07
2019-04-26T11:12:22.052Z,12.20
2019-04-26T11:14:53.310Z,12.67
2019-04-26T11:17:22.706Z,14.10
2019-04-26T11:19:52.295Z,12.77
2019-04-26T11:22:28.899Z,11.73
2019-04-26T11:24:53.901Z,12.90
2019-04-26T11:27:24.063Z,13.40
2019-04-26T11:29:54.257Z,11.50
2019-04-26T11:32:23.662Z,14.50
2019-04-26T11:34:54.512Z,12.80
2019-04-26T11:37:24.379Z,14.03
2019-04-26T11:39:53.970Z,11.83
2019-04-26T11:42:23.411Z,12.93
2019-04-26T11:44:53.037Z,13.60
2019-04-26T11:47:22.459Z,12.53
2019-04-26T11:49:52.065Z,30.17
2019-04-26T11:52:21.541Z,15.43
2019-04-26T11:54:51.219Z,13.27
2019-04-26T11:57:22.123Z,12.67
2019-04-26T11:59:57.661Z,11.93
2019-04-26T12:02:27.063Z,12.60
2019-04-26T12:05:30.702Z,12.23
2019-04-26T12:08:04.286Z,12.07
2019-04-26T12:10:34.002Z,12.50
2019-04-26T12:13:06.020Z,14.93
2019-04-26T12:15:34.690Z,17.20
2019-04-26T12:18:05.610Z,15.23
2019-04-26T12:20:35.433Z,14.90
2019-04-26T12:23:05.112Z,13.10
2019-04-26T12:25:38.791Z,12.97
2019-04-26T12:28:07.299Z,13.60
2019-04-26T12:30:38.000Z,13.53
2019-04-26T12:33:07.440Z,13.67
2019-04-26T12:35:36.991Z,14.60
2019-04-26T12:38:06.493Z,13.83
2019-04-26T12:40:36.067Z,12.73
2019-04-26T12:43:05.466Z,15.90
2019-04-26T12:46:03.260Z,16.10
2019-04-26T12:48:32.740Z,19.10
2019-04-26T12:51:02.347Z,21.53
2019-04-26T12:53:32.945Z,14.70
2019-04-26T12:56:02.508Z,13.00
2019-04-26T12:58:31.915Z,11.97
2019-04-26T13:01:02.601Z,13.67
2019-04-26T13:03:31.975Z,11.80
2019-04-26T13:06:01.501Z,14.50
2019-04-26T13:08:31.090Z,13.33
2019-04-26T13:11:22.340Z,15.50
2019-04-26T13:14:16.053Z,14.33
2019-04-26T13:17:04.956Z,13.93
2019-04-26T13:19:34.483Z,14.60
2019-04-26T13:22:04.029Z,15.13
2019-04-26T13:24:35.512Z,12.20
2019-04-26T13:27:06.128Z,12.90
2019-04-26T13:29:36.000Z,18.87
2019-04-26T13:32:05.599Z,15.60
2019-04-26T13:34:37.307Z,15.50
2019-04-26T13:37:07.006Z,15.60
2019-04-26T13:39:37.504Z,17.53
2019-04-26T13:42:09.514Z,15.70
2019-04-26T13:45:12.356Z,15.83
2019-04-26T13:48:03.487Z,16.53
2019-04-26T13:50:39.528Z,15.87
2019-04-26T13:53:08.927Z,15.33
2019-04-26T13:55:38.565Z,18.10
2019-04-26T13:58:08.018Z,23.30
2019-04-26T14:00:39.786Z,29.93
2019-04-26T14:03:08.944Z,20.87
2019-04-26T14:05:38.479Z,16.53
2019-04-26T14:08:08.004Z,16.80
2019-04-26T14:10:49.695Z,16.90
2019-04-26T14:13:20.754Z,16.13
2019-04-26T14:15:51.639Z,29.10
2019-04-26T14:18:19.339Z,16.90
2019-04-26T14:20:48.820Z,17.50
2019-04-26T14:23:52.341Z,19.70
2019-04-26T14:26:35.233Z,15.33
2019-04-26T14:29:04.217Z,16.17
2019-04-26T14:31:33.621Z,32.80
2019-04-26T14:34:05.526Z,12.37
2019-04-26T14:36:34.423Z,12.37
2019-04-26T14:39:06.426Z,12.43
2019-04-26T14:41:35.969Z,11.13
2019-04-26T14:44:15.356Z,9.97
2019-04-26T14:46:48.270Z,9.33
2019-04-26T14:49:08.114Z,10.13
2019-04-26T14:51:40.526Z,6.27
2019-04-26T14:54:11.440Z,7.07
2019-04-26T14:56:51.677Z,7.13
2019-04-26T14:59:12.209Z,6.77
2019-04-26T15:02:06.344Z,7.00
2019-04-26T15:04:44.628Z,6.67
2019-04-26T15:07:22.830Z,6.20
2019-04-26T15:09:52.963Z,6.20
2019-04-26T15:12:22.615Z,5.73
2019-04-26T15:14:53.774Z,5.40
2019-04-26T15:17:26.478Z,7.17
2019-04-26T15:19:54.597Z,7.20
2019-04-26T15:22:24.427Z,9.10
2019-04-26T15:24:54.046Z,6.93
2019-04-26T15:27:23.447Z,6.40
2019-04-26T15:29:52.814Z,7.53
2019-04-26T15:32:23.998Z,6.90
2019-04-26T15:34:55.029Z,5.90
2019-04-26T15:37:28.187Z,6.10
2019-04-26T15:40:16.479Z,5.80
2019-04-26T15:43:14.738Z,5.17
2019-04-26T15:45:53.730Z,6.30
2019-04-26T15:48:35.166Z,6.47
2019-04-26T15:51:20.134Z,6.37
2019-04-26T15:53:49.042Z,7.33
2019-04-26T15:56:19.240Z,5.90
2019-04-26T15:58:49.206Z,5.10
2019-04-26T16:01:18.881Z,6.20
2019-04-26T16:03:48.482Z,5.70
2019-04-26T16:06:17.976Z,5.87
2019-04-26T16:08:47.516Z,7.07
2019-04-26T16:11:16.997Z,7.90
2019-04-26T16:13:52.152Z,6.70
2019-04-26T16:16:20.649Z,6.10
2019-04-26T16:18:53.403Z,6.30
2019-04-26T16:21:19.913Z,6.83
2019-04-26T16:23:54.106Z,6.50
2019-04-26T16:26:20.454Z,6.40
2019-04-26T16:29:08.821Z,6.93
2019-04-26T16:31:49.983Z,6.33
2019-04-26T16:34:19.897Z,6.60
2019-04-26T16:36:49.334Z,6.27
2019-04-26T16:39:18.755Z,5.97
2019-04-26T16:41:54.001Z,6.53
2019-04-26T16:44:29.497Z,6.73
2019-04-26T16:47:01.329Z,7.27
2019-04-26T16:49:25.913Z,6.50
2019-04-26T16:52:02.159Z,6.20
2019-04-26T16:54:26.879Z,7.20
2019-04-26T16:56:59.083Z,6.00
2019-04-26T16:59:27.906Z,7.60
2019-04-26T17:02:01.446Z,7.20
2019-04-26T17:04:35.218Z,7.97
2019-04-26T17:07:02.851Z,6.47
2019-04-26T17:09:52.301Z,7.27
2019-04-26T17:12:02.528Z,5.40
2019-04-26T17:14:34.169Z,6.77
2019-04-26T17:17:07.079Z,6.20
2019-04-26T17:19:37.465Z,8.00
2019-04-26T17:22:19.276Z,6.60
2019-04-26T17:25:02.654Z,6.83
2019-04-26T17:27:33.057Z,6.40
2019-04-26T17:30:04.550Z,7.03
2019-04-26T17:32:35.084Z,6.00
2019-04-26T17:35:07.475Z,7.53
2019-04-26T17:37:36.485Z,7.53
2019-04-26T17:40:06.215Z,8.20
2019-04-26T17:42:36.364Z,8.77
2019-04-26T17:45:07.122Z,8.60
2019-04-26T17:47:40.139Z,7.67
2019-04-26T17:50:10.898Z,7.97
2019-04-26T17:52:40.893Z,6.20
2019-04-26T17:55:14.250Z,7.80
2019-04-26T17:57:48.518Z,7.70
2019-04-26T18:00:20.883Z,8.03
2019-04-26T18:02:48.353Z,7.67
2019-04-26T18:05:19.166Z,8.00
2019-04-26T18:07:55.925Z,7.47
2019-04-26T18:10:20.677Z,9.20
2019-04-26T18:12:50.752Z,7.87
2019-04-26T18:15:20.456Z,8.43
2019-04-26T18:18:21.263Z,7.87
2019-04-26T18:21:08.442Z,10.20
2019-04-26T18:23:37.781Z,8.60
2019-04-26T18:26:07.296Z,8.90
2019-04-26T18:28:36.798Z,8.10
2019-04-26T18:31:08.089Z,8.07
2019-04-26T18:33:37.567Z,9.77
2019-04-26T18:36:07.133Z,8.80
2019-04-26T18:38:36.570Z,10.53
2019-04-26T18:41:06.069Z,8.57
2019-04-26T18:43:35.590Z,8.67
2019-04-26T18:46:12.741Z,9.07
2019-04-26T18:48:43.680Z,9.23
2019-04-26T18:51:13.573Z,9.47
2019-04-26T18:54:09.284Z,10.27
2019-04-26T18:56:40.695Z,8.27
2019-04-26T18:59:11.832Z,9.97
2019-04-26T19:01:42.113Z,11.13
2019-04-26T19:04:14.900Z,9.70
2019-04-26T19:06:43.464Z,10.27
2019-04-26T19:09:13.831Z,11.77
2019-04-26T19:11:48.715Z,10.87
2019-04-26T19:14:32.227Z,11.57
2019-04-26T19:17:30.120Z,11.40
2019-04-26T19:20:26.103Z,11.37
2019-04-26T19:23:00.146Z,10.47
2019-04-26T19:25:33.286Z,12.40
2019-04-26T19:28:04.285Z,15.37
2019-04-26T19:30:32.212Z,11.83
2019-04-26T19:33:02.141Z,13.90
2019-04-26T19:35:32.893Z,10.97
2019-04-26T19:38:03.273Z,14.40
2019-04-26T19:40:32.792Z,12.10
2019-04-26T19:43:07.677Z,15.37
2019-04-26T19:45:47.251Z,13.60
2019-04-26T19:48:31.800Z,16.73
2019-04-26T19:51:26.999Z,15.60
2019-04-26T19:54:21.456Z,15.33
2019-04-26T19:57:01.106Z,15.10
2019-04-26T19:59:33.040Z,18.20
2019-04-26T20:02:01.698Z,17.30
2019-04-26T20:04:34.064Z,16.27
2019-04-26T20:07:02.457Z,17.30
2019-04-26T20:09:31.997Z,17.67
2019-04-26T20:12:02.550Z,16.30
2019-04-26T20:14:45.049Z,15.63
2019-04-26T20:17:03.352Z,18.43
2019-04-26T20:19:37.276Z,17.63
2019-04-26T20:22:04.141Z,17.93
2019-04-26T20:24:33.626Z,18.60
2019-04-26T20:27:03.528Z,19.30
2019-04-26T20:29:33.237Z,21.90
2019-04-26T20:32:33.882Z,18.20
2019-04-26T20:35:13.083Z,20.70
2019-04-26T20:37:45.113Z,20.47
2019-04-26T20:40:20.210Z,18.00
2019-04-26T20:42:45.382Z,17.47
2019-04-26T20:45:16.966Z,17.23
2019-04-26T20:47:46.793Z,19.50
2019-04-26T20:50:17.689Z,18.63
2019-04-26T20:52:47.305Z,18.87
2019-04-26T20:55:16.806Z,18.40
2019-04-26T20:57:46.296Z,21.30
2019-04-26T21:00:16.913Z,17.90
2019-04-26T21:02:46.313Z,16.63
2019-04-26T21:05:15.707Z,16.97
2019-04-26T21:07:49.103Z,18.03
2019-04-26T21:10:21.941Z,18.87
2019-04-26T21:12:52.178Z,20.10
2019-04-26T21:15:20.140Z,21.23
2019-04-26T21:17:51.783Z,19.30
2019-04-26T21:20:21.643Z,18.57
2019-04-26T21:22:52.371Z,20.33
2019-04-26T21:25:32.603Z,20.23
2019-04-26T21:28:11.591Z,18.73
2019-04-26T21:30:55.859Z,20.30
2019-04-26T21:33:44.224Z,17.10
2019-04-26T21:36:34.748Z,21.20
2019-04-26T21:39:23.348Z,17.50
2019-04-26T21:41:53.236Z,20.70
2019-04-26T21:44:22.797Z,21.00
2019-04-26T21:46:56.249Z,23.83
2019-04-26T21:49:24.356Z,20.33
2019-04-26T21:51:54.348Z,22.20
2019-04-26T21:54:25.202Z,25.53
2019-04-26T21:56:54.871Z,23.57
2019-04-26T21:59:24.461Z,26.57
2019-04-26T22:01:58.995Z,26.37
2019-04-26T22:04:28.916Z,25.50
2019-04-26T22:06:59.896Z,27.17
2019-04-26T22:09:46.300Z,33.50
2019-04-26T22:12:16.933Z,28.37
2019-04-26T22:14:50.668Z,30.53
2019-04-26T22:17:30.451Z,30.60
2019-04-26T22:20:16.362Z,29.97
2019-04-26T22:22:59.262Z,31.73
2019-04-26T22:25:30.695Z,31.47
2019-04-26T22:28:01.323Z,33.47
2019-04-26T22:30:33.034Z,33.63
2019-04-26T22:33:03.043Z,33.70
2019-04-26T22:35:32.674Z,34.27
2019-04-26T22:38:03.662Z,30.93
2019-04-26T22:40:33.565Z,32.57
2019-04-26T22:43:21.010Z,31.17
2019-04-26T22:46:03.192Z,31.67
2019-04-26T22:48:35.949Z,35.23
2019-04-26T22:51:05.615Z,37.20
2019-04-26T22:53:34.982Z,34.27
2019-04-26T22:56:05.003Z,35.20
2019-04-26T22:58:34.734Z,36.20
2019-04-26T23:01:06.338Z,34.90
2019-04-26T23:03:36.569Z,39.10
2019-04-26T23:06:07.911Z,35.63
2019-04-26T23:08:38.298Z,37.30
2019-04-26T23:11:09.116Z,34.47
2019-04-26T23:13:56.960Z,36.00
2019-04-26T23:17:05.688Z,36.27
2019-04-26T23:19:57.532Z,32.43
2019-04-26T23:22:31.086Z,32.97
2019-04-26T23:24:59.190Z,35.97
2019-04-26T23:27:28.665Z,38.20
2019-04-26T23:29:58.492Z,37.50
2019-04-26T23:32:28.120Z,35.43
2019-04-26T23:34:58.212Z,37.07
2019-04-26T23:37:28.682Z,35.47
2019-04-26T23:39:58.172Z,35.53
2019-04-26T23:42:27.602Z,32.00
2019-04-26T23:44:57.092Z,30.43
2019-04-26T23:47:26.598Z,30.80
2019-04-26T23:49:56.977Z,30.00
2019-04-26T23:52:26.633Z,30.03
2019-04-26T23:54:56.007Z,30.30
2019-04-26T23:57:27.502Z,29.57
2019-04-26T23:59:59.947Z,30.07
